<?xml version="1.0" encoding="UTF-8" standalone="no" ?>
<gpx xmlns="http://www.topografix.com/GPX/1/1" xmlns:xsi="http://www.w3.org/2001/XMLSchema-instance" xsi:schemaLocation="http://www.topografix.com/GPX/1/1 http://www.topografix.com/GPX/1/1/gpx.xsd" version="1.1" creator="VisuGPX - https://www.visugpx.com">
  <metadata>
    <name>VTT QUINSSAINES</name>
    <desc><![CDATA[Trace facile]]></desc>
  </metadata>
  <trk>
    <name><![CDATA[QUINSSAINES]]></name>
    <trkseg>
      <trkpt lat="46.32761" lon="2.51018">
        <ele>411.20571993947</ele>
        <time>2022-04-05T18:13:05.000Z</time>
      </trkpt>
      <trkpt lat="46.32756" lon="2.51018">
        <ele>410.87857489143</ele>
        <time>2022-04-05T18:13:05.001Z</time>
      </trkpt>
      <trkpt lat="46.32754" lon="2.51043">
        <ele>410.41547928608</ele>
        <time>2022-04-05T18:13:05.005Z</time>
      </trkpt>
      <trkpt lat="46.32724" lon="2.51061">
        <ele>409.42530036714</ele>
        <time>2022-04-05T18:13:05.016Z</time>
      </trkpt>
      <trkpt lat="46.32734" lon="2.51092">
        <ele>408.11717908523</ele>
        <time>2022-04-05T18:13:05.032Z</time>
      </trkpt>
      <trkpt lat="46.32771" lon="2.5115">
        <ele>406.38889197925</ele>
        <time>2022-04-05T18:13:05.059Z</time>
      </trkpt>
      <trkpt lat="46.32771" lon="2.5115">
        <ele>405.03157413095</ele>
        <time>2022-04-05T18:13:05.086Z</time>
      </trkpt>
      <trkpt lat="46.32771" lon="2.5115">
        <ele>403.6891553083</ele>
        <time>2022-04-05T18:13:05.113Z</time>
      </trkpt>
      <trkpt lat="46.32777" lon="2.51159">
        <ele>402.21521024557</ele>
        <time>2022-04-05T18:13:05.141Z</time>
      </trkpt>
      <trkpt lat="46.32719" lon="2.5121">
        <ele>399.96864474484</ele>
        <time>2022-04-05T18:13:05.183Z</time>
      </trkpt>
      <trkpt lat="46.32643" lon="2.51223">
        <ele>397.84125974513</ele>
        <time>2022-04-05T18:13:05.240Z</time>
      </trkpt>
      <trkpt lat="46.32638" lon="2.51224">
        <ele>395.98517293413</ele>
        <time>2022-04-05T18:13:05.298Z</time>
      </trkpt>
      <trkpt lat="46.32502" lon="2.51252">
        <ele>393.50144086175</ele>
        <time>2022-04-05T18:13:05.384Z</time>
      </trkpt>
      <trkpt lat="46.32481" lon="2.51266">
        <ele>391.51919053772</ele>
        <time>2022-04-05T18:13:05.474Z</time>
      </trkpt>
      <trkpt lat="46.32481" lon="2.51266">
        <ele>389.52179389965</ele>
        <time>2022-04-05T18:13:05.564Z</time>
      </trkpt>
      <trkpt lat="46.32428" lon="2.51324">
        <ele>387.25567397098</ele>
        <time>2022-04-05T18:13:05.668Z</time>
      </trkpt>
      <trkpt lat="46.32398" lon="2.51346">
        <ele>384.94047301178</ele>
        <time>2022-04-05T18:13:05.778Z</time>
      </trkpt>
      <trkpt lat="46.32332" lon="2.51372">
        <ele>382.51558274721</ele>
        <time>2022-04-05T18:13:05.902Z</time>
      </trkpt>
      <trkpt lat="46.32297" lon="2.5137">
        <ele>380.20707310945</ele>
        <time>2022-04-05T18:13:06.033Z</time>
      </trkpt>
      <trkpt lat="46.32244" lon="2.5134">
        <ele>377.93879856832</ele>
        <time>2022-04-05T18:13:06.175Z</time>
      </trkpt>
      <trkpt lat="46.32166" lon="2.51225">
        <ele>374.60850033596</ele>
        <time>2022-04-05T18:13:06.340Z</time>
      </trkpt>
      <trkpt lat="46.32143" lon="2.51203">
        <ele>371.87772624766</ele>
        <time>2022-04-05T18:13:06.510Z</time>
      </trkpt>
      <trkpt lat="46.32106" lon="2.51182">
        <ele>369.24630572258</ele>
        <time>2022-04-05T18:13:06.688Z</time>
      </trkpt>
      <trkpt lat="46.32064" lon="2.51179">
        <ele>367.54854880622</ele>
        <time>2022-04-05T18:13:06.874Z</time>
      </trkpt>
      <trkpt lat="46.31861" lon="2.51233">
        <ele>365.22140215323</ele>
        <time>2022-04-05T18:13:07.102Z</time>
      </trkpt>
      <trkpt lat="46.31822" lon="2.51232">
        <ele>364.04299710261</ele>
        <time>2022-04-05T18:13:07.338Z</time>
      </trkpt>
      <trkpt lat="46.31762" lon="2.51208">
        <ele>363.33566370103</ele>
        <time>2022-04-05T18:13:07.586Z</time>
      </trkpt>
      <trkpt lat="46.31656" lon="2.51107">
        <ele>363.61203080064</ele>
        <time>2022-04-05T18:13:07.860Z</time>
      </trkpt>
      <trkpt lat="46.31585" lon="2.50981">
        <ele>363.63604015294</ele>
        <time>2022-04-05T18:13:08.156Z</time>
      </trkpt>
      <trkpt lat="46.31585" lon="2.50981">
        <ele>363.7471688849</ele>
        <time>2022-04-05T18:13:08.452Z</time>
      </trkpt>
      <trkpt lat="46.31585" lon="2.50981">
        <ele>363.98130899396</ele>
        <time>2022-04-05T18:13:08.748Z</time>
      </trkpt>
      <trkpt lat="46.31585" lon="2.50981">
        <ele>364.28832908474</ele>
        <time>2022-04-05T18:13:09.044Z</time>
      </trkpt>
      <trkpt lat="46.31554" lon="2.50925">
        <ele>364.71524627681</ele>
        <time>2022-04-05T18:13:09.350Z</time>
      </trkpt>
      <trkpt lat="46.31532" lon="2.50897">
        <ele>364.93253734078</ele>
        <time>2022-04-05T18:13:09.662Z</time>
      </trkpt>
      <trkpt lat="46.31516" lon="2.50828">
        <ele>365.32855035519</ele>
        <time>2022-04-05T18:13:09.984Z</time>
      </trkpt>
      <trkpt lat="46.31496" lon="2.50762">
        <ele>365.56367656242</ele>
        <time>2022-04-05T18:13:10.316Z</time>
      </trkpt>
      <trkpt lat="46.31467" lon="2.50644">
        <ele>365.85250723748</ele>
        <time>2022-04-05T18:13:10.665Z</time>
      </trkpt>
      <trkpt lat="46.31462" lon="2.50551">
        <ele>365.40518439816</ele>
        <time>2022-04-05T18:13:11.027Z</time>
      </trkpt>
      <trkpt lat="46.3141" lon="2.50402">
        <ele>365.13385917411</ele>
        <time>2022-04-05T18:13:11.412Z</time>
      </trkpt>
      <trkpt lat="46.31363" lon="2.50353">
        <ele>365.47222189574</ele>
        <time>2022-04-05T18:13:11.809Z</time>
      </trkpt>
      <trkpt lat="46.31313" lon="2.50321">
        <ele>365.41022716339</ele>
        <time>2022-04-05T18:13:12.217Z</time>
      </trkpt>
      <trkpt lat="46.3125" lon="2.50261">
        <ele>365.40171770036</ele>
        <time>2022-04-05T18:13:12.640Z</time>
      </trkpt>
      <trkpt lat="46.31192" lon="2.50181">
        <ele>365.64849362911</ele>
        <time>2022-04-05T18:13:13.079Z</time>
      </trkpt>
      <trkpt lat="46.31157" lon="2.50127">
        <ele>365.20989077825</ele>
        <time>2022-04-05T18:13:13.528Z</time>
      </trkpt>
      <trkpt lat="46.31142" lon="2.50086">
        <ele>364.79895729011</ele>
        <time>2022-04-05T18:13:13.984Z</time>
      </trkpt>
      <trkpt lat="46.31129" lon="2.50011">
        <ele>364.34077392604</ele>
        <time>2022-04-05T18:13:14.450Z</time>
      </trkpt>
      <trkpt lat="46.31107" lon="2.49952">
        <ele>363.78773990692</ele>
        <time>2022-04-05T18:13:14.926Z</time>
      </trkpt>
      <trkpt lat="46.3105" lon="2.49833">
        <ele>363.02519496718</ele>
        <time>2022-04-05T18:13:15.422Z</time>
      </trkpt>
      <trkpt lat="46.30922" lon="2.49626">
        <ele>361.36140100328</ele>
        <time>2022-04-05T18:13:15.956Z</time>
      </trkpt>
      <trkpt lat="46.30905" lon="2.4961">
        <ele>360.59762575551</ele>
        <time>2022-04-05T18:13:16.494Z</time>
      </trkpt>
      <trkpt lat="46.30854" lon="2.495">
        <ele>359.82261957003</ele>
        <time>2022-04-05T18:13:17.051Z</time>
      </trkpt>
      <trkpt lat="46.30829" lon="2.49427">
        <ele>359.30197372915</ele>
        <time>2022-04-05T18:13:17.619Z</time>
      </trkpt>
      <trkpt lat="46.30812" lon="2.49409">
        <ele>358.94734928697</ele>
        <time>2022-04-05T18:13:18.191Z</time>
      </trkpt>
      <trkpt lat="46.30776" lon="2.49326">
        <ele>359.09035178394</ele>
        <time>2022-04-05T18:13:18.777Z</time>
      </trkpt>
      <trkpt lat="46.30749" lon="2.49306">
        <ele>359.0014286881</ele>
        <time>2022-04-05T18:13:19.369Z</time>
      </trkpt>
      <trkpt lat="46.30698" lon="2.49293">
        <ele>358.81830887529</ele>
        <time>2022-04-05T18:13:19.971Z</time>
      </trkpt>
      <trkpt lat="46.30698" lon="2.49293">
        <ele>358.64124249431</ele>
        <time>2022-04-05T18:13:20.573Z</time>
      </trkpt>
      <trkpt lat="46.30697" lon="2.49293">
        <ele>358.48095463932</ele>
        <time>2022-04-05T18:13:21.175Z</time>
      </trkpt>
      <trkpt lat="46.30697" lon="2.49293">
        <ele>358.33828350619</ele>
        <time>2022-04-05T18:13:21.777Z</time>
      </trkpt>
      <trkpt lat="46.30697" lon="2.49293">
        <ele>358.22168992427</ele>
        <time>2022-04-05T18:13:22.379Z</time>
      </trkpt>
      <trkpt lat="46.30649" lon="2.49281">
        <ele>358.15997946939</ele>
        <time>2022-04-05T18:13:22.991Z</time>
      </trkpt>
      <trkpt lat="46.30624" lon="2.49389">
        <ele>358.20601810204</ele>
        <time>2022-04-05T18:13:23.619Z</time>
      </trkpt>
      <trkpt lat="46.30626" lon="2.49429">
        <ele>358.24905079885</ele>
        <time>2022-04-05T18:13:24.252Z</time>
      </trkpt>
      <trkpt lat="46.30639" lon="2.49477">
        <ele>358.40263234686</ele>
        <time>2022-04-05T18:13:24.892Z</time>
      </trkpt>
      <trkpt lat="46.30638" lon="2.4949">
        <ele>358.80740080002</ele>
        <time>2022-04-05T18:13:25.534Z</time>
      </trkpt>
      <trkpt lat="46.30623" lon="2.49525">
        <ele>359.36755635077</ele>
        <time>2022-04-05T18:13:26.182Z</time>
      </trkpt>
      <trkpt lat="46.30583" lon="2.49583">
        <ele>359.96323363214</ele>
        <time>2022-04-05T18:13:26.841Z</time>
      </trkpt>
      <trkpt lat="46.30518" lon="2.49635">
        <ele>361.48991715045</ele>
        <time>2022-04-05T18:13:27.515Z</time>
      </trkpt>
      <trkpt lat="46.30513" lon="2.49647">
        <ele>363.08223091839</ele>
        <time>2022-04-05T18:13:28.191Z</time>
      </trkpt>
      <trkpt lat="46.30539" lon="2.49699">
        <ele>365.10532121734</ele>
        <time>2022-04-05T18:13:28.876Z</time>
      </trkpt>
      <trkpt lat="46.30595" lon="2.49705">
        <ele>367.54102217423</ele>
        <time>2022-04-05T18:13:29.572Z</time>
      </trkpt>
      <trkpt lat="46.30638" lon="2.4972">
        <ele>370.26326670314</ele>
        <time>2022-04-05T18:13:30.277Z</time>
      </trkpt>
      <trkpt lat="46.30626" lon="2.49794">
        <ele>373.61963042895</ele>
        <time>2022-04-05T18:13:30.992Z</time>
      </trkpt>
      <trkpt lat="46.30533" lon="2.49861">
        <ele>377.35201162202</ele>
        <time>2022-04-05T18:13:31.728Z</time>
      </trkpt>
      <trkpt lat="46.30526" lon="2.49876">
        <ele>380.61001638405</ele>
        <time>2022-04-05T18:13:32.467Z</time>
      </trkpt>
      <trkpt lat="46.30521" lon="2.49938">
        <ele>384.06419758222</ele>
        <time>2022-04-05T18:13:33.214Z</time>
      </trkpt>
      <trkpt lat="46.30513" lon="2.4995">
        <ele>387.42677196689</ele>
        <time>2022-04-05T18:13:33.964Z</time>
      </trkpt>
      <trkpt lat="46.30478" lon="2.49975">
        <ele>391.07840114389</ele>
        <time>2022-04-05T18:13:34.722Z</time>
      </trkpt>
      <trkpt lat="46.30427" lon="2.50033">
        <ele>394.46869961997</ele>
        <time>2022-04-05T18:13:35.492Z</time>
      </trkpt>
      <trkpt lat="46.30163" lon="2.50275">
        <ele>398.44633661337</ele>
        <time>2022-04-05T18:13:36.325Z</time>
      </trkpt>
      <trkpt lat="46.30081" lon="2.50337">
        <ele>400.99399742011</ele>
        <time>2022-04-05T18:13:37.177Z</time>
      </trkpt>
      <trkpt lat="46.30069" lon="2.50334">
        <ele>403.51210084952</ele>
        <time>2022-04-05T18:13:38.031Z</time>
      </trkpt>
      <trkpt lat="46.30069" lon="2.50334">
        <ele>405.78452723106</ele>
        <time>2022-04-05T18:13:38.885Z</time>
      </trkpt>
      <trkpt lat="46.29955" lon="2.50293">
        <ele>408.17253883411</ele>
        <time>2022-04-05T18:13:39.762Z</time>
      </trkpt>
      <trkpt lat="46.29899" lon="2.50302">
        <ele>410.23373237088</ele>
        <time>2022-04-05T18:13:40.651Z</time>
      </trkpt>
      <trkpt lat="46.29888" lon="2.50337">
        <ele>411.59037230024</ele>
        <time>2022-04-05T18:13:41.545Z</time>
      </trkpt>
      <trkpt lat="46.29888" lon="2.50337">
        <ele>412.77853981246</ele>
        <time>2022-04-05T18:13:42.439Z</time>
      </trkpt>
      <trkpt lat="46.29882" lon="2.50542">
        <ele>414.17594951314</ele>
        <time>2022-04-05T18:13:43.362Z</time>
      </trkpt>
      <trkpt lat="46.29875" lon="2.50578">
        <ele>414.84366970991</ele>
        <time>2022-04-05T18:13:44.290Z</time>
      </trkpt>
      <trkpt lat="46.29875" lon="2.50579">
        <ele>415.19183087127</ele>
        <time>2022-04-05T18:13:45.218Z</time>
      </trkpt>
      <trkpt lat="46.29875" lon="2.50579">
        <ele>415.2778692768</ele>
        <time>2022-04-05T18:13:46.146Z</time>
      </trkpt>
      <trkpt lat="46.29875" lon="2.50579">
        <ele>415.12117167089</ele>
        <time>2022-04-05T18:13:47.074Z</time>
      </trkpt>
      <trkpt lat="46.29875" lon="2.50579">
        <ele>414.74441883702</ele>
        <time>2022-04-05T18:13:48.002Z</time>
      </trkpt>
      <trkpt lat="46.29851" lon="2.50619">
        <ele>414.12383199525</ele>
        <time>2022-04-05T18:13:48.937Z</time>
      </trkpt>
      <trkpt lat="46.29832" lon="2.50669">
        <ele>412.55081832443</ele>
        <time>2022-04-05T18:13:49.880Z</time>
      </trkpt>
      <trkpt lat="46.29831" lon="2.50681">
        <ele>411.57895062787</ele>
        <time>2022-04-05T18:13:50.825Z</time>
      </trkpt>
      <trkpt lat="46.29831" lon="2.50682">
        <ele>410.59158974272</ele>
        <time>2022-04-05T18:13:51.770Z</time>
      </trkpt>
      <trkpt lat="46.29815" lon="2.50733">
        <ele>409.57109857294</ele>
        <time>2022-04-05T18:13:52.723Z</time>
      </trkpt>
      <trkpt lat="46.29809" lon="2.50748">
        <ele>408.59469146158</ele>
        <time>2022-04-05T18:13:53.678Z</time>
      </trkpt>
      <trkpt lat="46.29787" lon="2.50799">
        <ele>407.60524268339</ele>
        <time>2022-04-05T18:13:54.642Z</time>
      </trkpt>
      <trkpt lat="46.29795" lon="2.50821">
        <ele>406.84584179458</ele>
        <time>2022-04-05T18:13:55.609Z</time>
      </trkpt>
      <trkpt lat="46.29788" lon="2.50835">
        <ele>406.37695833289</ele>
        <time>2022-04-05T18:13:56.578Z</time>
      </trkpt>
      <trkpt lat="46.29759" lon="2.50852">
        <ele>406.22471025995</ele>
        <time>2022-04-05T18:13:57.554Z</time>
      </trkpt>
      <trkpt lat="46.29752" lon="2.50864">
        <ele>406.30605322427</ele>
        <time>2022-04-05T18:13:58.532Z</time>
      </trkpt>
      <trkpt lat="46.29728" lon="2.50934">
        <ele>406.47357957956</ele>
        <time>2022-04-05T18:13:59.521Z</time>
      </trkpt>
      <trkpt lat="46.29722" lon="2.50945">
        <ele>407.33389767776</ele>
        <time>2022-04-05T18:14:00.512Z</time>
      </trkpt>
      <trkpt lat="46.29684" lon="2.51016">
        <ele>408.16780151432</ele>
        <time>2022-04-05T18:14:01.515Z</time>
      </trkpt>
      <trkpt lat="46.29627" lon="2.51123">
        <ele>410.43191320149</ele>
        <time>2022-04-05T18:14:02.537Z</time>
      </trkpt>
      <trkpt lat="46.29551" lon="2.51199">
        <ele>413.53241954537</ele>
        <time>2022-04-05T18:14:03.577Z</time>
      </trkpt>
      <trkpt lat="46.29361" lon="2.51226">
        <ele>417.59583585274</ele>
        <time>2022-04-05T18:14:04.655Z</time>
      </trkpt>
      <trkpt lat="46.29329" lon="2.51238">
        <ele>420.66263465428</ele>
        <time>2022-04-05T18:14:05.740Z</time>
      </trkpt>
      <trkpt lat="46.29271" lon="2.51241">
        <ele>424.1515149114</ele>
        <time>2022-04-05T18:14:06.837Z</time>
      </trkpt>
      <trkpt lat="46.2925" lon="2.51029">
        <ele>427.93290019895</ele>
        <time>2022-04-05T18:14:07.963Z</time>
      </trkpt>
      <trkpt lat="46.29203" lon="2.50894">
        <ele>431.50254481538</ele>
        <time>2022-04-05T18:14:09.110Z</time>
      </trkpt>
      <trkpt lat="46.29203" lon="2.50894">
        <ele>434.47174024346</ele>
        <time>2022-04-05T18:14:10.257Z</time>
      </trkpt>
      <trkpt lat="46.29203" lon="2.50894">
        <ele>437.25315089029</ele>
        <time>2022-04-05T18:14:11.404Z</time>
      </trkpt>
      <trkpt lat="46.29203" lon="2.50894">
        <ele>439.82314203842</ele>
        <time>2022-04-05T18:14:12.551Z</time>
      </trkpt>
      <trkpt lat="46.29132" lon="2.5069">
        <ele>442.11727426178</ele>
        <time>2022-04-05T18:14:13.730Z</time>
      </trkpt>
      <trkpt lat="46.29033" lon="2.50339">
        <ele>444.56899042659</ele>
        <time>2022-04-05T18:14:14.962Z</time>
      </trkpt>
      <trkpt lat="46.29016" lon="2.50244">
        <ele>446.23026249134</ele>
        <time>2022-04-05T18:14:16.207Z</time>
      </trkpt>
      <trkpt lat="46.28951" lon="2.49982">
        <ele>448.28144331262</ele>
        <time>2022-04-05T18:14:17.491Z</time>
      </trkpt>
      <trkpt lat="46.28874" lon="2.49691">
        <ele>450.45269002656</ele>
        <time>2022-04-05T18:14:18.818Z</time>
      </trkpt>
      <trkpt lat="46.28852" lon="2.49645">
        <ele>451.35180712316</ele>
        <time>2022-04-05T18:14:20.153Z</time>
      </trkpt>
      <trkpt lat="46.28853" lon="2.49604">
        <ele>451.86076568694</ele>
        <time>2022-04-05T18:14:21.493Z</time>
      </trkpt>
      <trkpt lat="46.28893" lon="2.49338">
        <ele>451.77963267232</ele>
        <time>2022-04-05T18:14:22.871Z</time>
      </trkpt>
      <trkpt lat="46.28895" lon="2.49161">
        <ele>451.22255603803</ele>
        <time>2022-04-05T18:14:24.274Z</time>
      </trkpt>
      <trkpt lat="46.28905" lon="2.49058">
        <ele>450.49859671667</ele>
        <time>2022-04-05T18:14:25.691Z</time>
      </trkpt>
      <trkpt lat="46.28863" lon="2.48709">
        <ele>450.45393839966</ele>
        <time>2022-04-05T18:14:27.157Z</time>
      </trkpt>
      <trkpt lat="46.2886" lon="2.48697">
        <ele>449.88160304426</ele>
        <time>2022-04-05T18:14:28.625Z</time>
      </trkpt>
      <trkpt lat="46.2886" lon="2.48697">
        <ele>449.2368076603</ele>
        <time>2022-04-05T18:14:30.093Z</time>
      </trkpt>
      <trkpt lat="46.2886" lon="2.48696">
        <ele>448.54271487275</ele>
        <time>2022-04-05T18:14:31.561Z</time>
      </trkpt>
      <trkpt lat="46.28859" lon="2.48696">
        <ele>447.82929704886</ele>
        <time>2022-04-05T18:14:33.029Z</time>
      </trkpt>
      <trkpt lat="46.28837" lon="2.48613">
        <ele>447.18970843705</ele>
        <time>2022-04-05T18:14:34.510Z</time>
      </trkpt>
      <trkpt lat="46.28836" lon="2.48609">
        <ele>446.52848478959</ele>
        <time>2022-04-05T18:14:35.991Z</time>
      </trkpt>
      <trkpt lat="46.28858" lon="2.48399">
        <ele>446.1971502376</ele>
        <time>2022-04-05T18:14:37.502Z</time>
      </trkpt>
      <trkpt lat="46.28859" lon="2.4817">
        <ele>445.23286373902</ele>
        <time>2022-04-05T18:14:39.044Z</time>
      </trkpt>
      <trkpt lat="46.28876" lon="2.48055">
        <ele>444.31170341265</ele>
        <time>2022-04-05T18:14:40.603Z</time>
      </trkpt>
      <trkpt lat="46.28906" lon="2.47942">
        <ele>444.05224987235</ele>
        <time>2022-04-05T18:14:42.178Z</time>
      </trkpt>
      <trkpt lat="46.28943" lon="2.47889">
        <ele>444.04246490241</ele>
        <time>2022-04-05T18:14:43.764Z</time>
      </trkpt>
      <trkpt lat="46.2876" lon="2.47752">
        <ele>444.8612394867</ele>
        <time>2022-04-05T18:14:45.391Z</time>
      </trkpt>
      <trkpt lat="46.28761" lon="2.47746">
        <ele>445.22282471279</ele>
        <time>2022-04-05T18:14:47.019Z</time>
      </trkpt>
      <trkpt lat="46.28778" lon="2.47628">
        <ele>445.83376897797</ele>
        <time>2022-04-05T18:14:48.664Z</time>
      </trkpt>
      <trkpt lat="46.28764" lon="2.4746">
        <ele>446.27570753442</ele>
        <time>2022-04-05T18:14:50.333Z</time>
      </trkpt>
      <trkpt lat="46.28756" lon="2.47449">
        <ele>447.21185081123</ele>
        <time>2022-04-05T18:14:52.004Z</time>
      </trkpt>
      <trkpt lat="46.28763" lon="2.47348">
        <ele>448.25878272585</ele>
        <time>2022-04-05T18:14:53.689Z</time>
      </trkpt>
      <trkpt lat="46.28773" lon="2.4723">
        <ele>449.74650138446</ele>
        <time>2022-04-05T18:14:55.390Z</time>
      </trkpt>
      <trkpt lat="46.28819" lon="2.46993">
        <ele>451.75713207144</ele>
        <time>2022-04-05T18:14:57.126Z</time>
      </trkpt>
      <trkpt lat="46.28836" lon="2.46815">
        <ele>453.70398497715</ele>
        <time>2022-04-05T18:14:58.886Z</time>
      </trkpt>
      <trkpt lat="46.28819" lon="2.46534">
        <ele>455.58099128924</ele>
        <time>2022-04-05T18:15:00.686Z</time>
      </trkpt>
      <trkpt lat="46.28832" lon="2.46419">
        <ele>457.16042456817</ele>
        <time>2022-04-05T18:15:02.502Z</time>
      </trkpt>
      <trkpt lat="46.28821" lon="2.46274">
        <ele>458.69999623683</ele>
        <time>2022-04-05T18:15:04.338Z</time>
      </trkpt>
      <trkpt lat="46.28881" lon="2.46055">
        <ele>460.44497677061</ele>
        <time>2022-04-05T18:15:06.207Z</time>
      </trkpt>
      <trkpt lat="46.28969" lon="2.45843">
        <ele>463.08491117767</ele>
        <time>2022-04-05T18:15:08.110Z</time>
      </trkpt>
      <trkpt lat="46.28995" lon="2.45762">
        <ele>464.41200223409</ele>
        <time>2022-04-05T18:15:10.025Z</time>
      </trkpt>
      <trkpt lat="46.28995" lon="2.45762">
        <ele>465.32383427204</ele>
        <time>2022-04-05T18:15:11.940Z</time>
      </trkpt>
      <trkpt lat="46.29023" lon="2.45728">
        <ele>466.02609595935</ele>
        <time>2022-04-05T18:15:13.863Z</time>
      </trkpt>
      <trkpt lat="46.29075" lon="2.45689">
        <ele>466.83815440304</ele>
        <time>2022-04-05T18:15:15.797Z</time>
      </trkpt>
      <trkpt lat="46.29119" lon="2.45623">
        <ele>467.5461219585</ele>
        <time>2022-04-05T18:15:17.744Z</time>
      </trkpt>
      <trkpt lat="46.29119" lon="2.45587">
        <ele>467.91956867671</ele>
        <time>2022-04-05T18:15:19.696Z</time>
      </trkpt>
      <trkpt lat="46.29105" lon="2.455">
        <ele>468.11207666802</ele>
        <time>2022-04-05T18:15:21.660Z</time>
      </trkpt>
      <trkpt lat="46.2911" lon="2.45448">
        <ele>467.90036117674</ele>
        <time>2022-04-05T18:15:23.632Z</time>
      </trkpt>
      <trkpt lat="46.29103" lon="2.4538">
        <ele>467.45996114305</ele>
        <time>2022-04-05T18:15:25.613Z</time>
      </trkpt>
      <trkpt lat="46.29111" lon="2.4536">
        <ele>467.38334798764</ele>
        <time>2022-04-05T18:15:27.597Z</time>
      </trkpt>
      <trkpt lat="46.29131" lon="2.45386">
        <ele>467.49200850242</ele>
        <time>2022-04-05T18:15:29.587Z</time>
      </trkpt>
      <trkpt lat="46.29129" lon="2.4535">
        <ele>467.55871079395</ele>
        <time>2022-04-05T18:15:31.582Z</time>
      </trkpt>
      <trkpt lat="46.29181" lon="2.45221">
        <ele>468.05610311958</ele>
        <time>2022-04-05T18:15:33.597Z</time>
      </trkpt>
      <trkpt lat="46.29231" lon="2.45049">
        <ele>469.14613854285</ele>
        <time>2022-04-05T18:15:35.638Z</time>
      </trkpt>
      <trkpt lat="46.29261" lon="2.44994">
        <ele>469.89958009899</ele>
        <time>2022-04-05T18:15:37.689Z</time>
      </trkpt>
      <trkpt lat="46.29344" lon="2.44889">
        <ele>470.56565293365</ele>
        <time>2022-04-05T18:15:39.762Z</time>
      </trkpt>
      <trkpt lat="46.29389" lon="2.44796">
        <ele>471.2445927989</ele>
        <time>2022-04-05T18:15:41.851Z</time>
      </trkpt>
      <trkpt lat="46.29448" lon="2.44555">
        <ele>471.5968006114</ele>
        <time>2022-04-05T18:15:43.975Z</time>
      </trkpt>
      <trkpt lat="46.29456" lon="2.44468">
        <ele>471.13705195913</ele>
        <time>2022-04-05T18:15:46.111Z</time>
      </trkpt>
      <trkpt lat="46.29473" lon="2.44394">
        <ele>470.73156212774</ele>
        <time>2022-04-05T18:15:48.258Z</time>
      </trkpt>
      <trkpt lat="46.29497" lon="2.44344">
        <ele>470.24426610251</ele>
        <time>2022-04-05T18:15:50.414Z</time>
      </trkpt>
      <trkpt lat="46.29494" lon="2.44298">
        <ele>469.81936608683</ele>
        <time>2022-04-05T18:15:52.576Z</time>
      </trkpt>
      <trkpt lat="46.29499" lon="2.4428">
        <ele>469.61891115604</ele>
        <time>2022-04-05T18:15:54.741Z</time>
      </trkpt>
      <trkpt lat="46.29499" lon="2.4428">
        <ele>469.71349766041</ele>
        <time>2022-04-05T18:15:56.906Z</time>
      </trkpt>
      <trkpt lat="46.29512" lon="2.44278">
        <ele>469.9363378681</ele>
        <time>2022-04-05T18:15:59.073Z</time>
      </trkpt>
      <trkpt lat="46.29544" lon="2.44246">
        <ele>470.43668475924</ele>
        <time>2022-04-05T18:16:01.248Z</time>
      </trkpt>
      <trkpt lat="46.29601" lon="2.44189">
        <ele>471.50903784143</ele>
        <time>2022-04-05T18:16:03.437Z</time>
      </trkpt>
      <trkpt lat="46.29622" lon="2.44153">
        <ele>472.60841527867</ele>
        <time>2022-04-05T18:16:05.633Z</time>
      </trkpt>
      <trkpt lat="46.29656" lon="2.44057">
        <ele>474.00804116088</ele>
        <time>2022-04-05T18:16:07.843Z</time>
      </trkpt>
      <trkpt lat="46.29674" lon="2.44041">
        <ele>475.2074037333</ele>
        <time>2022-04-05T18:16:10.058Z</time>
      </trkpt>
      <trkpt lat="46.29755" lon="2.44005">
        <ele>476.60080832108</ele>
        <time>2022-04-05T18:16:12.290Z</time>
      </trkpt>
      <trkpt lat="46.29821" lon="2.43952">
        <ele>477.59280122131</ele>
        <time>2022-04-05T18:16:14.537Z</time>
      </trkpt>
      <trkpt lat="46.29822" lon="2.43952">
        <ele>478.74902544038</ele>
        <time>2022-04-05T18:16:16.784Z</time>
      </trkpt>
      <trkpt lat="46.29822" lon="2.43952">
        <ele>479.94734783043</ele>
        <time>2022-04-05T18:16:19.031Z</time>
      </trkpt>
      <trkpt lat="46.29822" lon="2.43952">
        <ele>481.19689269769</ele>
        <time>2022-04-05T18:16:21.278Z</time>
      </trkpt>
      <trkpt lat="46.29888" lon="2.439">
        <ele>482.15775643749</ele>
        <time>2022-04-05T18:16:23.540Z</time>
      </trkpt>
      <trkpt lat="46.29875" lon="2.43901">
        <ele>483.5957526042</ele>
        <time>2022-04-05T18:16:25.805Z</time>
      </trkpt>
      <trkpt lat="46.29741" lon="2.43738">
        <ele>485.67062770861</ele>
        <time>2022-04-05T18:16:28.105Z</time>
      </trkpt>
      <trkpt lat="46.29704" lon="2.4362">
        <ele>487.74428820715</ele>
        <time>2022-04-05T18:16:30.423Z</time>
      </trkpt>
      <trkpt lat="46.2965" lon="2.43445">
        <ele>489.38769671855</ele>
        <time>2022-04-05T18:16:32.767Z</time>
      </trkpt>
      <trkpt lat="46.2958" lon="2.43285">
        <ele>491.0701834473</ele>
        <time>2022-04-05T18:16:35.137Z</time>
      </trkpt>
      <trkpt lat="46.29574" lon="2.43261">
        <ele>492.45402687215</ele>
        <time>2022-04-05T18:16:37.511Z</time>
      </trkpt>
      <trkpt lat="46.29635" lon="2.43272">
        <ele>493.7948858233</ele>
        <time>2022-04-05T18:16:39.897Z</time>
      </trkpt>
      <trkpt lat="46.29743" lon="2.4326">
        <ele>494.84007970086</ele>
        <time>2022-04-05T18:16:42.305Z</time>
      </trkpt>
      <trkpt lat="46.29905" lon="2.43253">
        <ele>496.14022451346</ele>
        <time>2022-04-05T18:16:44.745Z</time>
      </trkpt>
      <trkpt lat="46.29978" lon="2.43241">
        <ele>497.33316483012</ele>
        <time>2022-04-05T18:16:47.200Z</time>
      </trkpt>
      <trkpt lat="46.30041" lon="2.43231">
        <ele>498.51268997946</ele>
        <time>2022-04-05T18:16:49.668Z</time>
      </trkpt>
      <trkpt lat="46.30136" lon="2.43216">
        <ele>499.69798227494</ele>
        <time>2022-04-05T18:16:52.155Z</time>
      </trkpt>
      <trkpt lat="46.30175" lon="2.43209">
        <ele>500.49959962845</ele>
        <time>2022-04-05T18:16:54.650Z</time>
      </trkpt>
      <trkpt lat="46.30267" lon="2.43133">
        <ele>501.41720301475</ele>
        <time>2022-04-05T18:16:57.166Z</time>
      </trkpt>
      <trkpt lat="46.30291" lon="2.43104">
        <ele>502.14792582656</ele>
        <time>2022-04-05T18:16:59.688Z</time>
      </trkpt>
      <trkpt lat="46.30295" lon="2.431">
        <ele>502.48612309524</ele>
        <time>2022-04-05T18:17:02.211Z</time>
      </trkpt>
      <trkpt lat="46.30373" lon="2.43045">
        <ele>502.73278836156</ele>
        <time>2022-04-05T18:17:04.751Z</time>
      </trkpt>
      <trkpt lat="46.30414" lon="2.43014">
        <ele>502.58771680617</ele>
        <time>2022-04-05T18:17:07.301Z</time>
      </trkpt>
      <trkpt lat="46.30469" lon="2.43002">
        <ele>501.82726445961</ele>
        <time>2022-04-05T18:17:09.862Z</time>
      </trkpt>
      <trkpt lat="46.30501" lon="2.42998">
        <ele>500.91121376753</ele>
        <time>2022-04-05T18:17:12.429Z</time>
      </trkpt>
      <trkpt lat="46.30675" lon="2.42979">
        <ele>499.22667635973</ele>
        <time>2022-04-05T18:17:15.031Z</time>
      </trkpt>
      <trkpt lat="46.30767" lon="2.42975">
        <ele>496.96252171143</ele>
        <time>2022-04-05T18:17:17.652Z</time>
      </trkpt>
      <trkpt lat="46.30859" lon="2.42985">
        <ele>494.4039015448</ele>
        <time>2022-04-05T18:17:20.291Z</time>
      </trkpt>
      <trkpt lat="46.30904" lon="2.42972">
        <ele>491.95677423668</ele>
        <time>2022-04-05T18:17:22.939Z</time>
      </trkpt>
      <trkpt lat="46.30904" lon="2.42972">
        <ele>489.19815339198</ele>
        <time>2022-04-05T18:17:25.587Z</time>
      </trkpt>
      <trkpt lat="46.31117" lon="2.42809">
        <ele>485.53860362104</ele>
        <time>2022-04-05T18:17:28.283Z</time>
      </trkpt>
      <trkpt lat="46.31147" lon="2.4278">
        <ele>481.98839400891</ele>
        <time>2022-04-05T18:17:30.987Z</time>
      </trkpt>
      <trkpt lat="46.31193" lon="2.42705">
        <ele>478.22690440439</ele>
        <time>2022-04-05T18:17:33.705Z</time>
      </trkpt>
      <trkpt lat="46.31281" lon="2.4253">
        <ele>474.08105803871</ele>
        <time>2022-04-05T18:17:36.453Z</time>
      </trkpt>
      <trkpt lat="46.31295" lon="2.4249">
        <ele>470.6111330844</ele>
        <time>2022-04-05T18:17:39.207Z</time>
      </trkpt>
      <trkpt lat="46.31301" lon="2.42399">
        <ele>467.17123142326</ele>
        <time>2022-04-05T18:17:41.973Z</time>
      </trkpt>
      <trkpt lat="46.31315" lon="2.42344">
        <ele>463.41978898846</ele>
        <time>2022-04-05T18:17:44.747Z</time>
      </trkpt>
      <trkpt lat="46.31321" lon="2.42228">
        <ele>460.90048317872</ele>
        <time>2022-04-05T18:17:47.538Z</time>
      </trkpt>
      <trkpt lat="46.31396" lon="2.42104">
        <ele>456.35823867349</ele>
        <time>2022-04-05T18:17:50.351Z</time>
      </trkpt>
      <trkpt lat="46.31396" lon="2.42103">
        <ele>453.36582982055</ele>
        <time>2022-04-05T18:17:53.165Z</time>
      </trkpt>
      <trkpt lat="46.31396" lon="2.42103">
        <ele>450.52877361479</ele>
        <time>2022-04-05T18:17:55.979Z</time>
      </trkpt>
      <trkpt lat="46.31396" lon="2.42103">
        <ele>447.83874956365</ele>
        <time>2022-04-05T18:17:58.793Z</time>
      </trkpt>
      <trkpt lat="46.3142" lon="2.42064">
        <ele>445.06083278005</ele>
        <time>2022-04-05T18:18:01.614Z</time>
      </trkpt>
      <trkpt lat="46.31435" lon="2.42093">
        <ele>442.5479032128</ele>
        <time>2022-04-05T18:18:04.440Z</time>
      </trkpt>
      <trkpt lat="46.31577" lon="2.42195">
        <ele>437.32078158461</ele>
        <time>2022-04-05T18:18:07.298Z</time>
      </trkpt>
      <trkpt lat="46.31659" lon="2.42298">
        <ele>435.16530365029</ele>
        <time>2022-04-05T18:18:10.177Z</time>
      </trkpt>
      <trkpt lat="46.31694" lon="2.4233">
        <ele>433.72137706033</ele>
        <time>2022-04-05T18:18:13.065Z</time>
      </trkpt>
      <trkpt lat="46.31721" lon="2.42341">
        <ele>432.81004843618</ele>
        <time>2022-04-05T18:18:15.958Z</time>
      </trkpt>
      <trkpt lat="46.3172" lon="2.42357">
        <ele>432.15255087527</ele>
        <time>2022-04-05T18:18:18.853Z</time>
      </trkpt>
      <trkpt lat="46.31768" lon="2.42415">
        <ele>431.88831086671</ele>
        <time>2022-04-05T18:18:21.761Z</time>
      </trkpt>
      <trkpt lat="46.31865" lon="2.42577">
        <ele>431.20457467816</ele>
        <time>2022-04-05T18:18:24.699Z</time>
      </trkpt>
      <trkpt lat="46.3187" lon="2.42634">
        <ele>431.56671183046</ele>
        <time>2022-04-05T18:18:27.645Z</time>
      </trkpt>
      <trkpt lat="46.31883" lon="2.4267">
        <ele>432.21043571301</ele>
        <time>2022-04-05T18:18:30.596Z</time>
      </trkpt>
      <trkpt lat="46.32" lon="2.42779">
        <ele>433.50131373059</ele>
        <time>2022-04-05T18:18:33.575Z</time>
      </trkpt>
      <trkpt lat="46.32132" lon="2.42949">
        <ele>434.80001856353</ele>
        <time>2022-04-05T18:18:36.590Z</time>
      </trkpt>
      <trkpt lat="46.32211" lon="2.43032">
        <ele>436.05945153959</ele>
        <time>2022-04-05T18:18:39.624Z</time>
      </trkpt>
      <trkpt lat="46.32304" lon="2.43104">
        <ele>436.95830869881</ele>
        <time>2022-04-05T18:18:42.679Z</time>
      </trkpt>
      <trkpt lat="46.32327" lon="2.43138">
        <ele>437.38768296946</ele>
        <time>2022-04-05T18:18:45.741Z</time>
      </trkpt>
      <trkpt lat="46.32352" lon="2.43211">
        <ele>437.39865138557</ele>
        <time>2022-04-05T18:18:48.814Z</time>
      </trkpt>
      <trkpt lat="46.32386" lon="2.43233">
        <ele>437.47959981094</ele>
        <time>2022-04-05T18:18:51.895Z</time>
      </trkpt>
      <trkpt lat="46.32401" lon="2.43279">
        <ele>437.05590590816</ele>
        <time>2022-04-05T18:18:54.983Z</time>
      </trkpt>
      <trkpt lat="46.32405" lon="2.43347">
        <ele>436.45261260117</ele>
        <time>2022-04-05T18:18:58.080Z</time>
      </trkpt>
      <trkpt lat="46.32415" lon="2.43383">
        <ele>435.79850014464</ele>
        <time>2022-04-05T18:19:01.182Z</time>
      </trkpt>
      <trkpt lat="46.32419" lon="2.43382">
        <ele>435.0941562657</ele>
        <time>2022-04-05T18:19:04.285Z</time>
      </trkpt>
      <trkpt lat="46.32419" lon="2.43382">
        <ele>434.23535551239</ele>
        <time>2022-04-05T18:19:07.388Z</time>
      </trkpt>
      <trkpt lat="46.3242" lon="2.43382">
        <ele>433.21466179516</ele>
        <time>2022-04-05T18:19:10.491Z</time>
      </trkpt>
      <trkpt lat="46.3242" lon="2.43382">
        <ele>432.03963446257</ele>
        <time>2022-04-05T18:19:13.594Z</time>
      </trkpt>
      <trkpt lat="46.3242" lon="2.43382">
        <ele>430.71619058976</ele>
        <time>2022-04-05T18:19:16.697Z</time>
      </trkpt>
      <trkpt lat="46.32415" lon="2.43383">
        <ele>435.79850014464</ele>
        <time>2022-04-05T18:19:19.801Z</time>
      </trkpt>
      <trkpt lat="46.32421" lon="2.43447">
        <ele>427.46396903449</ele>
        <time>2022-04-05T18:19:22.914Z</time>
      </trkpt>
      <trkpt lat="46.32438" lon="2.43496">
        <ele>425.64853347684</ele>
        <time>2022-04-05T18:19:26.035Z</time>
      </trkpt>
      <trkpt lat="46.32497" lon="2.4361">
        <ele>423.46141908366</ele>
        <time>2022-04-05T18:19:29.176Z</time>
      </trkpt>
      <trkpt lat="46.32513" lon="2.43658">
        <ele>421.58892752329</ele>
        <time>2022-04-05T18:19:32.324Z</time>
      </trkpt>
      <trkpt lat="46.32533" lon="2.43696">
        <ele>419.84528396566</ele>
        <time>2022-04-05T18:19:35.479Z</time>
      </trkpt>
      <trkpt lat="46.32569" lon="2.43704">
        <ele>418.11824634062</ele>
        <time>2022-04-05T18:19:38.641Z</time>
      </trkpt>
      <trkpt lat="46.32597" lon="2.43704">
        <ele>416.62273167313</ele>
        <time>2022-04-05T18:19:41.808Z</time>
      </trkpt>
      <trkpt lat="46.32625" lon="2.43697">
        <ele>415.60630306381</ele>
        <time>2022-04-05T18:19:44.981Z</time>
      </trkpt>
      <trkpt lat="46.32699" lon="2.43751">
        <ele>414.9536578734</ele>
        <time>2022-04-05T18:19:48.171Z</time>
      </trkpt>
      <trkpt lat="46.32668" lon="2.43828">
        <ele>413.49338724286</ele>
        <time>2022-04-05T18:19:51.373Z</time>
      </trkpt>
      <trkpt lat="46.32668" lon="2.43845">
        <ele>412.92861630088</ele>
        <time>2022-04-05T18:19:54.577Z</time>
      </trkpt>
      <trkpt lat="46.32747" lon="2.44076">
        <ele>412.66954017759</ele>
        <time>2022-04-05T18:19:57.817Z</time>
      </trkpt>
      <trkpt lat="46.32754" lon="2.44186">
        <ele>412.85411636361</ele>
        <time>2022-04-05T18:20:01.072Z</time>
      </trkpt>
      <trkpt lat="46.3277" lon="2.44246">
        <ele>413.03756002805</ele>
        <time>2022-04-05T18:20:04.336Z</time>
      </trkpt>
      <trkpt lat="46.32848" lon="2.44532">
        <ele>413.71506940867</ele>
        <time>2022-04-05T18:20:07.643Z</time>
      </trkpt>
      <trkpt lat="46.32848" lon="2.44532">
        <ele>414.21057723933</ele>
        <time>2022-04-05T18:20:10.950Z</time>
      </trkpt>
      <trkpt lat="46.32849" lon="2.44533">
        <ele>414.80383596547</ele>
        <time>2022-04-05T18:20:14.257Z</time>
      </trkpt>
      <trkpt lat="46.32849" lon="2.44532">
        <ele>415.45612193454</ele>
        <time>2022-04-05T18:20:17.564Z</time>
      </trkpt>
      <trkpt lat="46.32849" lon="2.44532">
        <ele>416.14244496032</ele>
        <time>2022-04-05T18:20:20.871Z</time>
      </trkpt>
      <trkpt lat="46.32853" lon="2.44549">
        <ele>416.88729423085</ele>
        <time>2022-04-05T18:20:24.180Z</time>
      </trkpt>
      <trkpt lat="46.32902" lon="2.4475">
        <ele>417.46359364444</ele>
        <time>2022-04-05T18:20:27.519Z</time>
      </trkpt>
      <trkpt lat="46.32908" lon="2.44833">
        <ele>418.07921483438</ele>
        <time>2022-04-05T18:20:30.870Z</time>
      </trkpt>
      <trkpt lat="46.32944" lon="2.45111">
        <ele>418.87333660647</ele>
        <time>2022-04-05T18:20:34.260Z</time>
      </trkpt>
      <trkpt lat="46.33" lon="2.45293">
        <ele>419.0725100131</ele>
        <time>2022-04-05T18:20:37.677Z</time>
      </trkpt>
      <trkpt lat="46.33055" lon="2.4544">
        <ele>419.3998989487</ele>
        <time>2022-04-05T18:20:41.118Z</time>
      </trkpt>
      <trkpt lat="46.33122" lon="2.45461">
        <ele>419.45929239562</ele>
        <time>2022-04-05T18:20:44.572Z</time>
      </trkpt>
      <trkpt lat="46.33131" lon="2.45466">
        <ele>419.31200732933</ele>
        <time>2022-04-05T18:20:48.028Z</time>
      </trkpt>
      <trkpt lat="46.33131" lon="2.45466">
        <ele>418.92789951201</ele>
        <time>2022-04-05T18:20:51.484Z</time>
      </trkpt>
      <trkpt lat="46.33132" lon="2.45467">
        <ele>418.29461401988</ele>
        <time>2022-04-05T18:20:54.940Z</time>
      </trkpt>
      <trkpt lat="46.33132" lon="2.45467">
        <ele>417.40007046112</ele>
        <time>2022-04-05T18:20:58.397Z</time>
      </trkpt>
      <trkpt lat="46.33132" lon="2.45467">
        <ele>416.23997324768</ele>
        <time>2022-04-05T18:21:01.854Z</time>
      </trkpt>
      <trkpt lat="46.33147" lon="2.45477">
        <ele>414.75643173098</ele>
        <time>2022-04-05T18:21:05.314Z</time>
      </trkpt>
      <trkpt lat="46.33151" lon="2.4549">
        <ele>413.03903599948</ele>
        <time>2022-04-05T18:21:08.776Z</time>
      </trkpt>
      <trkpt lat="46.33119" lon="2.45513">
        <ele>411.1530656482</ele>
        <time>2022-04-05T18:21:12.245Z</time>
      </trkpt>
      <trkpt lat="46.32895" lon="2.45582">
        <ele>408.68762541347</ele>
        <time>2022-04-05T18:21:15.760Z</time>
      </trkpt>
      <trkpt lat="46.32788" lon="2.45588">
        <ele>406.14150303477</ele>
        <time>2022-04-05T18:21:19.296Z</time>
      </trkpt>
      <trkpt lat="46.32746" lon="2.45603">
        <ele>403.80545558729</ele>
        <time>2022-04-05T18:21:22.841Z</time>
      </trkpt>
      <trkpt lat="46.32685" lon="2.45589">
        <ele>401.56158973502</ele>
        <time>2022-04-05T18:21:26.398Z</time>
      </trkpt>
      <trkpt lat="46.32657" lon="2.45592">
        <ele>399.58178208513</ele>
        <time>2022-04-05T18:21:29.961Z</time>
      </trkpt>
      <trkpt lat="46.32583" lon="2.4565">
        <ele>397.38772673121</ele>
        <time>2022-04-05T18:21:33.541Z</time>
      </trkpt>
      <trkpt lat="46.32579" lon="2.45665">
        <ele>396.20599203109</ele>
        <time>2022-04-05T18:21:37.123Z</time>
      </trkpt>
      <trkpt lat="46.32573" lon="2.4566">
        <ele>395.39601488057</ele>
        <time>2022-04-05T18:21:40.706Z</time>
      </trkpt>
      <trkpt lat="46.3257" lon="2.45692">
        <ele>395.04629014189</ele>
        <time>2022-04-05T18:21:44.294Z</time>
      </trkpt>
      <trkpt lat="46.32598" lon="2.45808">
        <ele>394.99934842722</ele>
        <time>2022-04-05T18:21:47.899Z</time>
      </trkpt>
      <trkpt lat="46.3259" lon="2.45836">
        <ele>395.23880631967</ele>
        <time>2022-04-05T18:21:51.508Z</time>
      </trkpt>
      <trkpt lat="46.32504" lon="2.45826">
        <ele>396.55143596606</ele>
        <time>2022-04-05T18:21:55.134Z</time>
      </trkpt>
      <trkpt lat="46.32426" lon="2.458">
        <ele>397.48976880646</ele>
        <time>2022-04-05T18:21:58.776Z</time>
      </trkpt>
      <trkpt lat="46.32341" lon="2.45801">
        <ele>399.12675401708</ele>
        <time>2022-04-05T18:22:02.435Z</time>
      </trkpt>
      <trkpt lat="46.32296" lon="2.4579">
        <ele>400.43845011414</ele>
        <time>2022-04-05T18:22:06.103Z</time>
      </trkpt>
      <trkpt lat="46.32271" lon="2.45691">
        <ele>401.55498174411</ele>
        <time>2022-04-05T18:22:09.786Z</time>
      </trkpt>
      <trkpt lat="46.32271" lon="2.45691">
        <ele>402.5124610855</ele>
        <time>2022-04-05T18:22:13.469Z</time>
      </trkpt>
      <trkpt lat="46.32271" lon="2.45689">
        <ele>403.35301143239</ele>
        <time>2022-04-05T18:22:17.152Z</time>
      </trkpt>
      <trkpt lat="46.32271" lon="2.45689">
        <ele>404.0705818205</ele>
        <time>2022-04-05T18:22:20.835Z</time>
      </trkpt>
      <trkpt lat="46.32271" lon="2.45689">
        <ele>404.66153366698</ele>
        <time>2022-04-05T18:22:24.518Z</time>
      </trkpt>
      <trkpt lat="46.32269" lon="2.45683">
        <ele>405.12245900533</ele>
        <time>2022-04-05T18:22:28.202Z</time>
      </trkpt>
      <trkpt lat="46.32172" lon="2.45729">
        <ele>405.2586866471</ele>
        <time>2022-04-05T18:22:31.907Z</time>
      </trkpt>
      <trkpt lat="46.32172" lon="2.45729">
        <ele>405.60343932801</ele>
        <time>2022-04-05T18:22:35.612Z</time>
      </trkpt>
      <trkpt lat="46.32148" lon="2.45744">
        <ele>405.88474395433</ele>
        <time>2022-04-05T18:22:39.322Z</time>
      </trkpt>
      <trkpt lat="46.32117" lon="2.45789">
        <ele>406.14442073753</ele>
        <time>2022-04-05T18:22:43.041Z</time>
      </trkpt>
      <trkpt lat="46.32042" lon="2.45834">
        <ele>406.86410433191</ele>
        <time>2022-04-05T18:22:46.776Z</time>
      </trkpt>
      <trkpt lat="46.3212" lon="2.46133">
        <ele>407.57651416594</ele>
        <time>2022-04-05T18:22:50.555Z</time>
      </trkpt>
      <trkpt lat="46.32137" lon="2.46227">
        <ele>408.44388919852</ele>
        <time>2022-04-05T18:22:54.348Z</time>
      </trkpt>
      <trkpt lat="46.3214" lon="2.46562">
        <ele>409.46976211978</ele>
        <time>2022-04-05T18:22:58.187Z</time>
      </trkpt>
      <trkpt lat="46.32148" lon="2.46615">
        <ele>410.45788194418</ele>
        <time>2022-04-05T18:23:02.034Z</time>
      </trkpt>
      <trkpt lat="46.32146" lon="2.46654">
        <ele>411.74183333052</ele>
        <time>2022-04-05T18:23:05.886Z</time>
      </trkpt>
      <trkpt lat="46.3211" lon="2.46733">
        <ele>413.05813915053</ele>
        <time>2022-04-05T18:23:09.751Z</time>
      </trkpt>
      <trkpt lat="46.32102" lon="2.46753">
        <ele>414.53288104514</ele>
        <time>2022-04-05T18:23:13.619Z</time>
      </trkpt>
      <trkpt lat="46.32096" lon="2.46812">
        <ele>416.13711903603</ele>
        <time>2022-04-05T18:23:17.496Z</time>
      </trkpt>
      <trkpt lat="46.32117" lon="2.4693">
        <ele>418.17253968668</ele>
        <time>2022-04-05T18:23:21.390Z</time>
      </trkpt>
      <trkpt lat="46.32158" lon="2.4702">
        <ele>420.39664314878</ele>
        <time>2022-04-05T18:23:25.299Z</time>
      </trkpt>
      <trkpt lat="46.32177" lon="2.47087">
        <ele>422.69377899759</ele>
        <time>2022-04-05T18:23:29.218Z</time>
      </trkpt>
      <trkpt lat="46.32202" lon="2.47162">
        <ele>425.01509267347</ele>
        <time>2022-04-05T18:23:33.148Z</time>
      </trkpt>
      <trkpt lat="46.32214" lon="2.47218">
        <ele>427.14404458095</ele>
        <time>2022-04-05T18:23:37.086Z</time>
      </trkpt>
      <trkpt lat="46.32232" lon="2.47332">
        <ele>429.16097148703</ele>
        <time>2022-04-05T18:23:41.041Z</time>
      </trkpt>
      <trkpt lat="46.32246" lon="2.47509">
        <ele>430.85595776801</ele>
        <time>2022-04-05T18:23:45.020Z</time>
      </trkpt>
      <trkpt lat="46.32294" lon="2.47721">
        <ele>432.41360104315</ele>
        <time>2022-04-05T18:23:49.030Z</time>
      </trkpt>
      <trkpt lat="46.32294" lon="2.47721">
        <ele>433.63432412959</ele>
        <time>2022-04-05T18:23:53.040Z</time>
      </trkpt>
      <trkpt lat="46.32294" lon="2.47723">
        <ele>434.64740636095</ele>
        <time>2022-04-05T18:23:57.050Z</time>
      </trkpt>
      <trkpt lat="46.32294" lon="2.47722">
        <ele>435.44791331101</ele>
        <time>2022-04-05T18:24:01.060Z</time>
      </trkpt>
      <trkpt lat="46.32294" lon="2.47722">
        <ele>436.04650066782</ele>
        <time>2022-04-05T18:24:05.070Z</time>
      </trkpt>
      <trkpt lat="46.32294" lon="2.47722">
        <ele>435.44791331101</ele>
        <time>2022-04-05T18:24:09.080Z</time>
      </trkpt>
      <trkpt lat="46.32294" lon="2.47722">
        <ele>436.04650066782</ele>
        <time>2022-04-05T18:24:13.090Z</time>
      </trkpt>
      <trkpt lat="46.32295" lon="2.47727">
        <ele>436.73338213637</ele>
        <time>2022-04-05T18:24:17.101Z</time>
      </trkpt>
      <trkpt lat="46.32342" lon="2.47896">
        <ele>436.64233488411</ele>
        <time>2022-04-05T18:24:21.137Z</time>
      </trkpt>
      <trkpt lat="46.32398" lon="2.48047">
        <ele>436.42335838506</ele>
        <time>2022-04-05T18:24:25.197Z</time>
      </trkpt>
      <trkpt lat="46.32438" lon="2.48222">
        <ele>435.87189157264</ele>
        <time>2022-04-05T18:24:29.283Z</time>
      </trkpt>
      <trkpt lat="46.32453" lon="2.48273">
        <ele>435.39062290741</ele>
        <time>2022-04-05T18:24:33.376Z</time>
      </trkpt>
      <trkpt lat="46.3248" lon="2.48373">
        <ele>434.67494473527</ele>
        <time>2022-04-05T18:24:37.484Z</time>
      </trkpt>
      <trkpt lat="46.32526" lon="2.48614">
        <ele>433.79147611124</ele>
        <time>2022-04-05T18:24:41.627Z</time>
      </trkpt>
      <trkpt lat="46.32549" lon="2.48688">
        <ele>432.69901650547</ele>
        <time>2022-04-05T18:24:45.781Z</time>
      </trkpt>
      <trkpt lat="46.32562" lon="2.48724">
        <ele>431.66322205312</ele>
        <time>2022-04-05T18:24:49.941Z</time>
      </trkpt>
      <trkpt lat="46.32678" lon="2.49066">
        <ele>430.3479319599</ele>
        <time>2022-04-05T18:24:54.153Z</time>
      </trkpt>
      <trkpt lat="46.32695" lon="2.49149">
        <ele>429.02466670441</ele>
        <time>2022-04-05T18:24:58.378Z</time>
      </trkpt>
      <trkpt lat="46.32697" lon="2.49159">
        <ele>427.76548751251</ele>
        <time>2022-04-05T18:25:02.604Z</time>
      </trkpt>
      <trkpt lat="46.32746" lon="2.49198">
        <ele>426.41141119172</ele>
        <time>2022-04-05T18:25:06.841Z</time>
      </trkpt>
      <trkpt lat="46.32841" lon="2.49307">
        <ele>425.04168292129</ele>
        <time>2022-04-05T18:25:11.102Z</time>
      </trkpt>
      <trkpt lat="46.32974" lon="2.4939">
        <ele>423.12328741899</ele>
        <time>2022-04-05T18:25:15.392Z</time>
      </trkpt>
      <trkpt lat="46.3302" lon="2.49425">
        <ele>421.73254061103</ele>
        <time>2022-04-05T18:25:19.693Z</time>
      </trkpt>
      <trkpt lat="46.33041" lon="2.49453">
        <ele>420.57445476573</ele>
        <time>2022-04-05T18:25:23.999Z</time>
      </trkpt>
      <trkpt lat="46.33104" lon="2.49495">
        <ele>419.16291943495</ele>
        <time>2022-04-05T18:25:28.319Z</time>
      </trkpt>
      <trkpt lat="46.33117" lon="2.49514">
        <ele>418.00093014846</ele>
        <time>2022-04-05T18:25:32.643Z</time>
      </trkpt>
      <trkpt lat="46.33176" lon="2.49553">
        <ele>416.78351536898</ele>
        <time>2022-04-05T18:25:36.980Z</time>
      </trkpt>
      <trkpt lat="46.33211" lon="2.49562">
        <ele>415.86543342281</ele>
        <time>2022-04-05T18:25:41.324Z</time>
      </trkpt>
      <trkpt lat="46.33214" lon="2.49556">
        <ele>415.15763288906</ele>
        <time>2022-04-05T18:25:45.669Z</time>
      </trkpt>
      <trkpt lat="46.33255" lon="2.4958">
        <ele>414.57653769242</ele>
        <time>2022-04-05T18:25:50.023Z</time>
      </trkpt>
      <trkpt lat="46.33255" lon="2.4958">
        <ele>414.16291336256</ele>
        <time>2022-04-05T18:25:54.377Z</time>
      </trkpt>
      <trkpt lat="46.33314" lon="2.4962">
        <ele>413.88553042999</ele>
        <time>2022-04-05T18:25:58.744Z</time>
      </trkpt>
      <trkpt lat="46.33335" lon="2.49635">
        <ele>413.54593866856</ele>
        <time>2022-04-05T18:26:03.116Z</time>
      </trkpt>
      <trkpt lat="46.33521" lon="2.49696">
        <ele>413.11145094559</ele>
        <time>2022-04-05T18:26:07.526Z</time>
      </trkpt>
      <trkpt lat="46.3368" lon="2.49817">
        <ele>413.03575093178</ele>
        <time>2022-04-05T18:26:11.972Z</time>
      </trkpt>
      <trkpt lat="46.33759" lon="2.49898">
        <ele>412.98175645725</ele>
        <time>2022-04-05T18:26:16.438Z</time>
      </trkpt>
      <trkpt lat="46.33759" lon="2.49898">
        <ele>412.83332542297</ele>
        <time>2022-04-05T18:26:20.904Z</time>
      </trkpt>
      <trkpt lat="46.33761" lon="2.499">
        <ele>412.59043137841</ele>
        <time>2022-04-05T18:26:25.370Z</time>
      </trkpt>
      <trkpt lat="46.33761" lon="2.499">
        <ele>412.21130932937</ele>
        <time>2022-04-05T18:26:29.836Z</time>
      </trkpt>
      <trkpt lat="46.33761" lon="2.499">
        <ele>411.64257357489</ele>
        <time>2022-04-05T18:26:34.302Z</time>
      </trkpt>
      <trkpt lat="46.33807" lon="2.49948">
        <ele>410.55458001609</ele>
        <time>2022-04-05T18:26:38.779Z</time>
      </trkpt>
      <trkpt lat="46.33843" lon="2.49916">
        <ele>409.64352281424</ele>
        <time>2022-04-05T18:26:43.265Z</time>
      </trkpt>
      <trkpt lat="46.33898" lon="2.49847">
        <ele>407.92991212997</ele>
        <time>2022-04-05T18:26:47.765Z</time>
      </trkpt>
      <trkpt lat="46.33934" lon="2.49773">
        <ele>406.21506022071</ele>
        <time>2022-04-05T18:26:52.278Z</time>
      </trkpt>
      <trkpt lat="46.33952" lon="2.49678">
        <ele>403.95831643829</ele>
        <time>2022-04-05T18:26:56.804Z</time>
      </trkpt>
      <trkpt lat="46.3394" lon="2.49602">
        <ele>401.63115970374</ele>
        <time>2022-04-05T18:27:01.341Z</time>
      </trkpt>
      <trkpt lat="46.33969" lon="2.49555">
        <ele>398.64974427469</ele>
        <time>2022-04-05T18:27:05.887Z</time>
      </trkpt>
      <trkpt lat="46.34009" lon="2.49496">
        <ele>395.20121791804</ele>
        <time>2022-04-05T18:27:10.444Z</time>
      </trkpt>
      <trkpt lat="46.34043" lon="2.49462">
        <ele>391.67354166759</ele>
        <time>2022-04-05T18:27:15.010Z</time>
      </trkpt>
      <trkpt lat="46.34209" lon="2.49357">
        <ele>387.17431236802</ele>
        <time>2022-04-05T18:27:19.612Z</time>
      </trkpt>
      <trkpt lat="46.34264" lon="2.49354">
        <ele>383.24638421147</ele>
        <time>2022-04-05T18:27:24.225Z</time>
      </trkpt>
      <trkpt lat="46.34301" lon="2.49341">
        <ele>379.14656716027</ele>
        <time>2022-04-05T18:27:28.846Z</time>
      </trkpt>
      <trkpt lat="46.34392" lon="2.49283">
        <ele>374.08566220344</ele>
        <time>2022-04-05T18:27:33.486Z</time>
      </trkpt>
      <trkpt lat="46.34416" lon="2.49249">
        <ele>370.42001081892</ele>
        <time>2022-04-05T18:27:38.133Z</time>
      </trkpt>
      <trkpt lat="46.34425" lon="2.49252">
        <ele>367.33520760699</ele>
        <time>2022-04-05T18:27:42.782Z</time>
      </trkpt>
      <trkpt lat="46.34426" lon="2.49303">
        <ele>364.76282244716</ele>
        <time>2022-04-05T18:27:47.438Z</time>
      </trkpt>
      <trkpt lat="46.34439" lon="2.49393">
        <ele>362.52822962821</ele>
        <time>2022-04-05T18:27:52.107Z</time>
      </trkpt>
      <trkpt lat="46.34439" lon="2.49393">
        <ele>360.7738258403</ele>
        <time>2022-04-05T18:27:56.776Z</time>
      </trkpt>
      <trkpt lat="46.34439" lon="2.49395">
        <ele>359.4361295876</ele>
        <time>2022-04-05T18:28:01.445Z</time>
      </trkpt>
      <trkpt lat="46.34439" lon="2.49395">
        <ele>358.49102537112</ele>
        <time>2022-04-05T18:28:06.114Z</time>
      </trkpt>
      <trkpt lat="46.34439" lon="2.49395">
        <ele>357.91396954538</ele>
        <time>2022-04-05T18:28:10.783Z</time>
      </trkpt>
      <trkpt lat="46.34456" lon="2.49509">
        <ele>357.74622036654</ele>
        <time>2022-04-05T18:28:15.468Z</time>
      </trkpt>
      <trkpt lat="46.34486" lon="2.49641">
        <ele>357.49827224759</ele>
        <time>2022-04-05T18:28:20.172Z</time>
      </trkpt>
      <trkpt lat="46.34502" lon="2.49807">
        <ele>358.00424618651</ele>
        <time>2022-04-05T18:28:24.900Z</time>
      </trkpt>
      <trkpt lat="46.34515" lon="2.49879">
        <ele>358.5763414691</ele>
        <time>2022-04-05T18:28:29.638Z</time>
      </trkpt>
      <trkpt lat="46.34525" lon="2.49957">
        <ele>359.55221613968</ele>
        <time>2022-04-05T18:28:34.387Z</time>
      </trkpt>
      <trkpt lat="46.34525" lon="2.49957">
        <ele>360.57207047053</ele>
        <time>2022-04-05T18:28:39.136Z</time>
      </trkpt>
      <trkpt lat="46.34552" lon="2.50147">
        <ele>362.79495808525</ele>
        <time>2022-04-05T18:28:43.912Z</time>
      </trkpt>
      <trkpt lat="46.34593" lon="2.50324">
        <ele>363.75978643444</ele>
        <time>2022-04-05T18:28:48.714Z</time>
      </trkpt>
      <trkpt lat="46.34595" lon="2.50377">
        <ele>365.35178484501</ele>
        <time>2022-04-05T18:28:53.523Z</time>
      </trkpt>
      <trkpt lat="46.34629" lon="2.50463">
        <ele>366.73811422887</ele>
        <time>2022-04-05T18:28:58.346Z</time>
      </trkpt>
      <trkpt lat="46.34599" lon="2.50503">
        <ele>368.36569624578</ele>
        <time>2022-04-05T18:29:03.177Z</time>
      </trkpt>
      <trkpt lat="46.34548" lon="2.50531">
        <ele>370.19946340766</ele>
        <time>2022-04-05T18:29:08.019Z</time>
      </trkpt>
      <trkpt lat="46.34486" lon="2.5048">
        <ele>371.1601565616</ele>
        <time>2022-04-05T18:29:12.875Z</time>
      </trkpt>
      <trkpt lat="46.34448" lon="2.5042">
        <ele>372.00778133444</ele>
        <time>2022-04-05T18:29:17.742Z</time>
      </trkpt>
      <trkpt lat="46.34409" lon="2.50389">
        <ele>371.9540456853</ele>
        <time>2022-04-05T18:29:22.618Z</time>
      </trkpt>
      <trkpt lat="46.34444" lon="2.50489">
        <ele>370.5713600396</ele>
        <time>2022-04-05T18:29:27.510Z</time>
      </trkpt>
      <trkpt lat="46.34544" lon="2.50678">
        <ele>367.77765418102</ele>
        <time>2022-04-05T18:29:32.435Z</time>
      </trkpt>
      <trkpt lat="46.34579" lon="2.50727">
        <ele>364.79024953315</ele>
        <time>2022-04-05T18:29:37.370Z</time>
      </trkpt>
      <trkpt lat="46.34579" lon="2.50727">
        <ele>361.88880860023</ele>
        <time>2022-04-05T18:29:42.305Z</time>
      </trkpt>
      <trkpt lat="46.3458" lon="2.50729">
        <ele>358.44115678585</ele>
        <time>2022-04-05T18:29:47.240Z</time>
      </trkpt>
      <trkpt lat="46.3458" lon="2.50729">
        <ele>354.50284874342</ele>
        <time>2022-04-05T18:29:52.175Z</time>
      </trkpt>
      <trkpt lat="46.3458" lon="2.50729">
        <ele>350.12033991939</ele>
        <time>2022-04-05T18:29:57.110Z</time>
      </trkpt>
      <trkpt lat="46.3466" lon="2.50842">
        <ele>345.04696523653</ele>
        <time>2022-04-05T18:30:02.067Z</time>
      </trkpt>
      <trkpt lat="46.34887" lon="2.5116">
        <ele>337.30742470038</ele>
        <time>2022-04-05T18:30:07.088Z</time>
      </trkpt>
      <trkpt lat="46.34915" lon="2.51191">
        <ele>332.23559631477</ele>
        <time>2022-04-05T18:30:12.116Z</time>
      </trkpt>
      <trkpt lat="46.34913" lon="2.51202">
        <ele>327.39352236629</ele>
        <time>2022-04-05T18:30:17.145Z</time>
      </trkpt>
      <trkpt lat="46.34909" lon="2.51214">
        <ele>322.75824129088</ele>
        <time>2022-04-05T18:30:22.176Z</time>
      </trkpt>
      <trkpt lat="46.34894" lon="2.51241">
        <ele>318.5059347484</ele>
        <time>2022-04-05T18:30:27.212Z</time>
      </trkpt>
      <trkpt lat="46.349" lon="2.51378">
        <ele>313.67357873203</ele>
        <time>2022-04-05T18:30:32.267Z</time>
      </trkpt>
      <trkpt lat="46.34908" lon="2.51545">
        <ele>309.08583034529</ele>
        <time>2022-04-05T18:30:37.345Z</time>
      </trkpt>
      <trkpt lat="46.34904" lon="2.51568">
        <ele>306.02881581154</ele>
        <time>2022-04-05T18:30:42.426Z</time>
      </trkpt>
      <trkpt lat="46.34887" lon="2.51594">
        <ele>303.6062325974</ele>
        <time>2022-04-05T18:30:47.512Z</time>
      </trkpt>
      <trkpt lat="46.34857" lon="2.51612">
        <ele>301.82078667947</ele>
        <time>2022-04-05T18:30:52.605Z</time>
      </trkpt>
      <trkpt lat="46.34809" lon="2.51616">
        <ele>300.63672824744</ele>
        <time>2022-04-05T18:30:57.708Z</time>
      </trkpt>
      <trkpt lat="46.34793" lon="2.5163">
        <ele>300.21002781391</ele>
        <time>2022-04-05T18:31:02.814Z</time>
      </trkpt>
      <trkpt lat="46.3476" lon="2.51627">
        <ele>300.54874050673</ele>
        <time>2022-04-05T18:31:07.927Z</time>
      </trkpt>
      <trkpt lat="46.34742" lon="2.5165">
        <ele>301.62802977304</ele>
        <time>2022-04-05T18:31:13.045Z</time>
      </trkpt>
      <trkpt lat="46.34723" lon="2.51644">
        <ele>303.41286948412</ele>
        <time>2022-04-05T18:31:18.167Z</time>
      </trkpt>
      <trkpt lat="46.3458" lon="2.51638">
        <ele>307.0983557427</ele>
        <time>2022-04-05T18:31:23.317Z</time>
      </trkpt>
      <trkpt lat="46.3458" lon="2.51638">
        <ele>309.72957733066</ele>
        <time>2022-04-05T18:31:28.467Z</time>
      </trkpt>
      <trkpt lat="46.34488" lon="2.51629">
        <ele>313.50312405902</ele>
        <time>2022-04-05T18:31:33.636Z</time>
      </trkpt>
      <trkpt lat="46.34454" lon="2.51635">
        <ele>316.74874864495</ele>
        <time>2022-04-05T18:31:38.812Z</time>
      </trkpt>
      <trkpt lat="46.34402" lon="2.51644">
        <ele>320.12837994327</ele>
        <time>2022-04-05T18:31:43.998Z</time>
      </trkpt>
      <trkpt lat="46.3435" lon="2.51639">
        <ele>323.37886959728</ele>
        <time>2022-04-05T18:31:49.195Z</time>
      </trkpt>
      <trkpt lat="46.3435" lon="2.51639">
        <ele>326.30822658035</ele>
        <time>2022-04-05T18:31:54.392Z</time>
      </trkpt>
      <trkpt lat="46.34308" lon="2.51634">
        <ele>329.52378685608</ele>
        <time>2022-04-05T18:31:59.597Z</time>
      </trkpt>
      <trkpt lat="46.34308" lon="2.51634">
        <ele>332.27488303895</ele>
        <time>2022-04-05T18:32:04.802Z</time>
      </trkpt>
      <trkpt lat="46.34307" lon="2.51634">
        <ele>334.97729194772</ele>
        <time>2022-04-05T18:32:10.007Z</time>
      </trkpt>
      <trkpt lat="46.34306" lon="2.51634">
        <ele>337.65428242581</ele>
        <time>2022-04-05T18:32:15.212Z</time>
      </trkpt>
      <trkpt lat="46.34306" lon="2.51634">
        <ele>340.36069235248</ele>
        <time>2022-04-05T18:32:20.417Z</time>
      </trkpt>
      <trkpt lat="46.34177" lon="2.51618">
        <ele>343.6790823782</ele>
        <time>2022-04-05T18:32:25.648Z</time>
      </trkpt>
      <trkpt lat="46.34094" lon="2.5159">
        <ele>347.0002464523</ele>
        <time>2022-04-05T18:32:30.896Z</time>
      </trkpt>
      <trkpt lat="46.34088" lon="2.51589">
        <ele>350.01485711562</ele>
        <time>2022-04-05T18:32:36.146Z</time>
      </trkpt>
      <trkpt lat="46.34071" lon="2.51586">
        <ele>353.25895101893</ele>
        <time>2022-04-05T18:32:41.399Z</time>
      </trkpt>
      <trkpt lat="46.34025" lon="2.51576">
        <ele>356.7473178047</ele>
        <time>2022-04-05T18:32:46.661Z</time>
      </trkpt>
      <trkpt lat="46.33916" lon="2.51538">
        <ele>360.68513769777</ele>
        <time>2022-04-05T18:32:51.946Z</time>
      </trkpt>
      <trkpt lat="46.33839" lon="2.51488">
        <ele>364.50809951506</ele>
        <time>2022-04-05T18:32:57.248Z</time>
      </trkpt>
      <trkpt lat="46.33694" lon="2.5139">
        <ele>368.02119470681</ele>
        <time>2022-04-05T18:33:02.582Z</time>
      </trkpt>
      <trkpt lat="46.33564" lon="2.5135">
        <ele>371.84029133872</ele>
        <time>2022-04-05T18:33:07.942Z</time>
      </trkpt>
      <trkpt lat="46.33442" lon="2.5122">
        <ele>376.11732814229</ele>
        <time>2022-04-05T18:33:13.333Z</time>
      </trkpt>
      <trkpt lat="46.33376" lon="2.51164">
        <ele>379.91703051935</ele>
        <time>2022-04-05T18:33:18.739Z</time>
      </trkpt>
      <trkpt lat="46.33332" lon="2.51102">
        <ele>383.38324119406</ele>
        <time>2022-04-05T18:33:24.157Z</time>
      </trkpt>
      <trkpt lat="46.33269" lon="2.51043">
        <ele>386.82741715743</ele>
        <time>2022-04-05T18:33:29.590Z</time>
      </trkpt>
      <trkpt lat="46.33239" lon="2.50988">
        <ele>390.00355906259</ele>
        <time>2022-04-05T18:33:35.033Z</time>
      </trkpt>
      <trkpt lat="46.33196" lon="2.5094">
        <ele>392.87560287956</ele>
        <time>2022-04-05T18:33:40.487Z</time>
      </trkpt>
      <trkpt lat="46.33191" lon="2.50944">
        <ele>395.34679054832</ele>
        <time>2022-04-05T18:33:45.942Z</time>
      </trkpt>
      <trkpt lat="46.33122" lon="2.50849">
        <ele>397.8328025536</ele>
        <time>2022-04-05T18:33:51.416Z</time>
      </trkpt>
      <trkpt lat="46.33122" lon="2.50849">
        <ele>399.86524281129</ele>
        <time>2022-04-05T18:33:56.890Z</time>
      </trkpt>
      <trkpt lat="46.3306" lon="2.50761">
        <ele>402.0101332223</ele>
        <time>2022-04-05T18:34:02.382Z</time>
      </trkpt>
      <trkpt lat="46.3301" lon="2.50685">
        <ele>404.10369177023</ele>
        <time>2022-04-05T18:34:07.888Z</time>
      </trkpt>
      <trkpt lat="46.33004" lon="2.50677">
        <ele>405.47012520952</ele>
        <time>2022-04-05T18:34:13.396Z</time>
      </trkpt>
      <trkpt lat="46.33004" lon="2.50677">
        <ele>406.56023587123</ele>
        <time>2022-04-05T18:34:18.904Z</time>
      </trkpt>
      <trkpt lat="46.32982" lon="2.50645">
        <ele>407.62351154793</ele>
        <time>2022-04-05T18:34:24.418Z</time>
      </trkpt>
      <trkpt lat="46.32975" lon="2.50637">
        <ele>408.3199683181</ele>
        <time>2022-04-05T18:34:29.934Z</time>
      </trkpt>
      <trkpt lat="46.32975" lon="2.50637">
        <ele>408.76499030039</ele>
        <time>2022-04-05T18:34:35.450Z</time>
      </trkpt>
      <trkpt lat="46.32974" lon="2.50635">
        <ele>409.04869769633</ele>
        <time>2022-04-05T18:34:40.966Z</time>
      </trkpt>
      <trkpt lat="46.32974" lon="2.50635">
        <ele>409.17714576813</ele>
        <time>2022-04-05T18:34:46.482Z</time>
      </trkpt>
      <trkpt lat="46.32974" lon="2.50635">
        <ele>409.18031465647</ele>
        <time>2022-04-05T18:34:51.998Z</time>
      </trkpt>
      <trkpt lat="46.32974" lon="2.50635">
        <ele>409.08166479864</ele>
        <time>2022-04-05T18:34:57.514Z</time>
      </trkpt>
      <trkpt lat="46.32959" lon="2.50617">
        <ele>409.00994055414</ele>
        <time>2022-04-05T18:35:03.034Z</time>
      </trkpt>
      <trkpt lat="46.32952" lon="2.50666">
        <ele>408.4382759084</ele>
        <time>2022-04-05T18:35:08.561Z</time>
      </trkpt>
      <trkpt lat="46.32916" lon="2.50699">
        <ele>408.27525852508</ele>
        <time>2022-04-05T18:35:14.096Z</time>
      </trkpt>
      <trkpt lat="46.32893" lon="2.50722">
        <ele>408.12735036373</ele>
        <time>2022-04-05T18:35:19.637Z</time>
      </trkpt>
      <trkpt lat="46.32887" lon="2.50806">
        <ele>407.69059662537</ele>
        <time>2022-04-05T18:35:25.190Z</time>
      </trkpt>
      <trkpt lat="46.32887" lon="2.50806">
        <ele>407.26840333512</ele>
        <time>2022-04-05T18:35:30.743Z</time>
      </trkpt>
      <trkpt lat="46.32887" lon="2.50808">
        <ele>406.78893193245</ele>
        <time>2022-04-05T18:35:36.296Z</time>
      </trkpt>
      <trkpt lat="46.32887" lon="2.50808">
        <ele>406.26729211466</ele>
        <time>2022-04-05T18:35:41.849Z</time>
      </trkpt>
      <trkpt lat="46.32887" lon="2.50808">
        <ele>405.69801601932</ele>
        <time>2022-04-05T18:35:47.402Z</time>
      </trkpt>
      <trkpt lat="46.32885" lon="2.50835">
        <ele>405.01306329703</ele>
        <time>2022-04-05T18:35:52.959Z</time>
      </trkpt>
      <trkpt lat="46.32907" lon="2.50835">
        <ele>404.39836468198</ele>
        <time>2022-04-05T18:35:58.520Z</time>
      </trkpt>
      <trkpt lat="46.32936" lon="2.5091">
        <ele>403.65963850938</ele>
        <time>2022-04-05T18:36:04.093Z</time>
      </trkpt>
      <trkpt lat="46.32906" lon="2.50956">
        <ele>403.65778054491</ele>
        <time>2022-04-05T18:36:09.675Z</time>
      </trkpt>
      <trkpt lat="46.32833" lon="2.51017">
        <ele>404.72772617439</ele>
        <time>2022-04-05T18:36:15.274Z</time>
      </trkpt>
      <trkpt lat="46.32831" lon="2.51061">
        <ele>405.17598810159</ele>
        <time>2022-04-05T18:36:20.879Z</time>
      </trkpt>
      <trkpt lat="46.32819" lon="2.51044">
        <ele>405.97230377138</ele>
        <time>2022-04-05T18:36:26.487Z</time>
      </trkpt>
      <trkpt lat="46.32782" lon="2.51017">
        <ele>407.05509579413</ele>
        <time>2022-04-05T18:36:32.103Z</time>
      </trkpt>
      <trkpt lat="46.32763" lon="2.51018">
        <ele>407.85073938749</ele>
        <time>2022-04-05T18:36:37.723Z</time>
      </trkpt>
    </trkseg>
  </trk>
</gpx>